Time,TemperatureF,DewpointF,PressureIn,WindDirection,WindDirectionDegrees,WindSpeedMPH,WindSpeedGustMPH,Humidity,HourlyPrecipIn,Conditions,Clouds,dailyrainin,SoftwareType,DateUTC
2013-05-18 00:00:00,71.7,64.1,30.02,West,267,4.0,6.0,77,0.00,,---,0.00,VWS V14.01,2013-05-18 04:00:00,
2013-05-18 00:01:00,71.8,64.0,30.02,West,277,1.0,8.0,76,0.00,,,0.00,weatherlink.com 1.10,2013-05-18 04:01:00,
2013-05-18 00:18:00,69.3,64.0,30.02,West,275,1.0,4.0,83,0.01,,,0.01,weatherlink.com 1.10,2013-05-18 04:18:00,
2013-05-18 00:34:00,68.3,64.0,30.03,NW,307,0.0,0.0,86,0.02,,,0.02,weatherlink.com 1.10,2013-05-18 04:34:00,
2013-05-18 00:51:00,67.4,64.0,30.02,NW,304,0.0,2.0,88,0.03,,,0.03,weatherlink.com 1.10,2013-05-18 04:51:00,
2013-05-18 01:07:00,67.0,64.0,30.02,WNW,297,0.0,1.0,90,0.03,,,0.04,weatherlink.com 1.10,2013-05-18 05:07:00,
2013-05-18 01:24:00,66.6,64.0,30.02,NW,315,0.0,2.0,91,0.04,,,0.05,weatherlink.com 1.10,2013-05-18 05:24:00,
2013-05-18 01:40:00,66.4,64.0,30.02,NW,316,0.0,2.0,92,0.04,,,0.06,weatherlink.com 1.10,2013-05-18 05:40:00,
2013-05-18 01:57:00,66.0,64.0,30.01,NW,315,0.0,1.0,93,0.04,,,0.08,weatherlink.com 1.10,2013-05-18 05:57:00,
2013-05-18 02:00:00,66.0,63.9,30.01,NW,315,0.0,4.0,93,0.08,,---,0.08,VWS V14.01,2013-05-18 06:00:00,
2013-05-18 02:13:00,65.9,64.0,30.01,NW,315,0.0,1.0,93,0.06,,,0.10,weatherlink.com 1.10,2013-05-18 06:13:00,
2013-05-18 02:29:00,65.5,64.0,30.00,NW,315,0.0,0.0,94,0.04,,,0.10,weatherlink.com 1.10,2013-05-18 06:29:00,
2013-05-18 02:45:00,65.4,64.0,30.00,NW,315,0.0,1.0,94,0.03,,,0.10,weatherlink.com 1.10,2013-05-18 06:45:00,
2013-05-18 03:03:00,65.2,64.0,30.00,NNW,337,0.0,2.0,94,0.03,,,0.11,weatherlink.com 1.10,2013-05-18 07:03:00,
2013-05-18 03:18:00,65.1,64.0,30.00,NNW,337,0.0,1.0,95,0.01,,,0.11,weatherlink.com 1.10,2013-05-18 07:18:00,
2013-05-18 03:35:00,65.1,64.0,30.00,NNW,338,0.0,0.0,95,0.10,,,0.20,weatherlink.com 1.10,2013-05-18 07:35:00,
2013-05-18 03:52:00,64.8,63.0,29.99,NNE,14,0.0,3.0,95,0.13,,,0.23,weatherlink.com 1.10,2013-05-18 07:52:00,
2013-05-18 04:00:00,64.8,63.3,29.99,North,5,0.0,2.0,95,0.16,,---,0.24,VWS V14.01,2013-05-18 08:00:00,
2013-05-18 04:08:00,64.7,63.0,29.99,North,11,0.0,2.0,95,0.13,,,0.24,weatherlink.com 1.10,2013-05-18 08:08:00,
2013-05-18 04:24:00,64.7,64.0,29.99,North,11,0.0,1.0,96,0.14,,,0.25,weatherlink.com 1.10,2013-05-18 08:24:00,
2013-05-18 04:41:00,64.7,64.0,29.99,North,11,0.0,1.0,96,0.03,,,0.25,weatherlink.com 1.10,2013-05-18 08:41:00,
2013-05-18 04:57:00,64.7,64.0,29.99,North,11,0.0,2.0,96,0.01,,,0.25,weatherlink.com 1.10,2013-05-18 08:57:00,
2013-05-18 05:13:00,64.6,64.0,29.99,North,11,0.0,1.0,96,0.01,,,0.25,weatherlink.com 1.10,2013-05-18 09:13:00,
2013-05-18 05:31:00,64.6,64.0,29.99,North,11,0.0,0.0,96,0.00,,,0.25,weatherlink.com 1.10,2013-05-18 09:31:00,
2013-05-18 05:47:00,64.6,64.0,29.99,North,11,0.0,0.0,97,0.00,,,0.25,weatherlink.com 1.10,2013-05-18 09:47:00,
2013-05-18 06:00:00,64.6,63.7,30.00,North,11,0.0,2.0,97,0.02,,---,0.26,VWS V14.01,2013-05-18 10:00:00,
2013-05-18 06:03:00,64.6,64.0,30.00,North,11,0.0,0.0,97,0.01,,,0.26,weatherlink.com 1.10,2013-05-18 10:03:00,
2013-05-18 06:19:00,64.6,64.0,30.00,North,11,0.0,0.0,97,0.01,,,0.26,weatherlink.com 1.10,2013-05-18 10:19:00,
2013-05-18 06:36:00,64.7,64.0,30.02,North,11,0.0,0.0,97,0.01,,,0.26,weatherlink.com 1.10,2013-05-18 10:36:00,
2013-05-18 06:52:00,64.7,64.0,30.02,North,11,0.0,0.0,97,0.01,,,0.26,weatherlink.com 1.10,2013-05-18 10:52:00,
2013-05-18 07:09:00,64.9,64.0,30.02,South,185,3.0,5.0,97,0.02,,,0.28,weatherlink.com 1.10,2013-05-18 11:09:00,
2013-05-18 07:26:00,65.0,64.0,30.02,SE,130,0.0,3.0,97,0.04,,,0.30,weatherlink.com 1.10,2013-05-18 11:26:00,
2013-05-18 07:42:00,65.1,64.0,30.03,South,170,0.0,5.0,96,0.04,,,0.30,weatherlink.com 1.10,2013-05-18 11:42:00,
2013-05-18 07:58:00,65.1,63.0,30.03,SSE,162,5.0,8.0,94,0.03,,,0.30,weatherlink.com 1.10,2013-05-18 11:58:00,
2013-05-18 08:00:00,65.2,63.1,30.03,South,179,1.0,10.0,93,0.04,,---,0.30,VWS V14.01,2013-05-18 12:00:00,
2013-05-18 08:15:00,65.3,63.0,30.03,SSW,200,0.0,7.0,92,0.01,,,0.30,weatherlink.com 1.10,2013-05-18 12:15:00,
2013-05-18 08:31:00,65.3,63.0,30.03,SE,134,3.0,7.0,92,0.00,,,0.30,weatherlink.com 1.10,2013-05-18 12:31:00,
2013-05-18 08:47:00,65.6,64.0,30.04,SSE,155,2.0,3.0,94,0.00,,,0.30,weatherlink.com 1.10,2013-05-18 12:47:00,
2013-05-18 09:03:00,66.0,64.0,30.04,East,101,1.0,2.0,94,0.00,,,0.30,weatherlink.com 1.10,2013-05-18 13:03:00,
2013-05-18 09:21:00,66.0,65.0,30.04,SE,128,1.0,5.0,95,0.00,,,0.30,weatherlink.com 1.10,2013-05-18 13:21:00,
2013-05-18 09:37:00,66.4,65.0,30.05,SE,132,0.0,5.0,95,0.00,,,0.30,weatherlink.com 1.10,2013-05-18 13:37:00,
2013-05-18 09:53:00,67.4,65.0,30.04,ESE,111,0.0,5.0,92,0.00,,,0.30,weatherlink.com 1.10,2013-05-18 13:53:00,
2013-05-18 10:00:00,67.9,64.9,30.05,SSE,156,3.0,6.0,90,0.00,,---,0.30,VWS V14.01,2013-05-18 14:00:00,
2013-05-18 10:10:00,68.0,64.0,30.05,South,180,1.0,5.0,88,0.00,,,0.30,weatherlink.com 1.10,2013-05-18 14:10:00,
2013-05-18 10:26:00,68.1,64.0,30.05,SSE,148,3.0,8.0,87,0.00,,,0.30,weatherlink.com 1.10,2013-05-18 14:26:00,
2013-05-18 10:42:00,68.6,64.0,30.04,South,191,2.0,7.0,86,0.00,,,0.30,weatherlink.com 1.10,2013-05-18 14:42:00,
2013-05-18 10:59:00,69.5,64.0,30.03,SE,138,3.0,10.0,83,0.00,,,0.30,weatherlink.com 1.10,2013-05-18 14:59:00,
2013-05-18 11:15:00,70.6,65.0,30.03,SE,128,2.0,9.0,81,0.00,,,0.30,weatherlink.com 1.10,2013-05-18 15:15:00,
2013-05-18 11:31:00,70.9,64.0,30.03,SSE,165,3.0,9.0,79,0.00,,,0.30,weatherlink.com 1.10,2013-05-18 15:31:00,
2013-05-18 11:48:00,70.8,64.0,30.03,SE,146,5.0,10.0,79,0.00,,,0.30,weatherlink.com 1.10,2013-05-18 15:48:00,
2013-05-18 12:00:00,70.9,63.7,30.03,ESE,115,2.0,9.0,78,0.00,,---,0.30,VWS V14.01,2013-05-18 16:00:00,
2013-05-18 12:04:00,71.1,64.0,30.03,South,178,9.0,10.0,78,0.00,,,0.30,weatherlink.com 1.10,2013-05-18 16:04:00,
2013-05-18 12:21:00,71.8,64.0,30.03,SSE,161,4.0,8.0,76,0.00,,,0.30,weatherlink.com 1.10,2013-05-18 16:21:00,
2013-05-18 12:37:00,71.7,63.0,30.03,SE,128,8.0,10.0,75,0.00,,,0.30,weatherlink.com 1.10,2013-05-18 16:37:00,
2013-05-18 12:54:00,72.2,64.0,30.03,SE,131,3.0,10.0,75,0.00,,,0.30,weatherlink.com 1.10,2013-05-18 16:54:00,
2013-05-18 13:10:00,72.7,64.0,30.03,WSW,239,3.0,9.0,73,0.00,,,0.30,weatherlink.com 1.10,2013-05-18 17:10:00,
2013-05-18 13:27:00,72.9,63.0,30.03,South,185,6.0,9.0,72,0.00,,,0.30,weatherlink.com 1.10,2013-05-18 17:27:00,
2013-05-18 13:43:00,73.2,64.0,30.02,South,171,5.0,8.0,72,0.00,,,0.30,weatherlink.com 1.10,2013-05-18 17:43:00,
2013-05-18 13:59:00,72.9,63.0,30.02,SSE,157,3.0,7.0,72,0.00,,,0.30,weatherlink.com 1.10,2013-05-18 17:59:00,
2013-05-18 14:00:00,72.7,63.2,30.02,SSE,167,4.0,11.0,72,0.00,,---,0.30,VWS V14.01,2013-05-18 18:00:00,
2013-05-18 14:16:00,72.5,63.0,30.02,SE,140,3.0,10.0,73,0.00,,,0.30,weatherlink.com 1.10,2013-05-18 18:16:00,
2013-05-18 14:33:00,73.7,64.0,30.02,South,176,6.0,8.0,72,0.00,,,0.30,weatherlink.com 1.10,2013-05-18 18:33:00,
2013-05-18 14:49:00,73.4,64.0,30.02,SSE,157,2.0,7.0,72,0.00,,,0.30,weatherlink.com 1.10,2013-05-18 18:49:00,
2013-05-18 15:05:00,72.7,64.0,30.01,SE,142,4.0,6.0,74,0.00,,,0.30,weatherlink.com 1.10,2013-05-18 19:05:00,
2013-05-18 15:21:00,72.8,64.0,30.01,SSE,163,0.0,8.0,74,0.00,,,0.30,weatherlink.com 1.10,2013-05-18 19:21:00,
2013-05-18 15:38:00,72.5,64.0,30.00,SW,217,4.0,7.0,75,0.00,,,0.30,weatherlink.com 1.10,2013-05-18 19:38:00,
2013-05-18 15:54:00,72.1,64.0,30.01,SSE,157,5.0,5.0,76,0.00,,,0.30,weatherlink.com 1.10,2013-05-18 19:54:00,
2013-05-18 16:00:00,71.8,64.6,30.00,SW,226,1.0,9.0,78,0.00,,---,0.30,VWS V14.01,2013-05-18 20:00:00,
2013-05-18 16:10:00,71.4,65.0,30.00,South,171,0.0,4.0,81,0.00,,,0.30,weatherlink.com 1.10,2013-05-18 20:10:00,
2013-05-18 16:27:00,71.1,65.0,30.00,SW,224,2.0,4.0,81,0.00,,,0.30,weatherlink.com 1.10,2013-05-18 20:27:00,
2013-05-18 16:43:00,70.9,66.0,30.00,South,184,1.0,5.0,83,0.00,,,0.30,weatherlink.com 1.10,2013-05-18 20:43:00,
2013-05-18 17:00:00,70.5,65.0,30.00,WSW,245,1.0,5.0,83,0.00,,,0.30,weatherlink.com 1.10,2013-05-18 21:00:00,
2013-05-18 17:16:00,70.5,65.0,29.99,SSW,204,3.0,4.0,83,0.00,,,0.30,weatherlink.com 1.10,2013-05-18 21:16:00,
2013-05-18 17:33:00,70.5,65.0,29.99,SW,217,0.0,2.0,83,0.00,,,0.30,weatherlink.com 1.10,2013-05-18 21:33:00,
2013-05-18 17:49:00,70.4,65.0,29.99,SSW,192,0.0,3.0,84,0.00,,,0.30,weatherlink.com 1.10,2013-05-18 21:49:00,
2013-05-18 18:00:00,70.4,65.3,29.99,WNW,298,0.0,5.0,84,0.00,,---,0.30,VWS V14.01,2013-05-18 22:00:00,
2013-05-18 18:06:00,70.4,65.0,30.00,WNW,296,0.0,1.0,84,0.00,,,0.30,weatherlink.com 1.10,2013-05-18 22:06:00,
2013-05-18 18:22:00,70.4,65.0,29.99,SW,219,0.0,1.0,84,0.00,,,0.30,weatherlink.com 1.10,2013-05-18 22:22:00,
2013-05-18 18:38:00,70.4,65.0,29.99,SE,130,0.0,5.0,84,0.00,,,0.30,weatherlink.com 1.10,2013-05-18 22:38:00,
2013-05-18 18:55:00,70.4,66.0,29.99,SSW,199,0.0,1.0,85,0.00,,,0.30,weatherlink.com 1.10,2013-05-18 22:55:00,
2013-05-18 19:11:00,70.3,66.0,29.99,ESE,120,1.0,3.0,86,0.00,,,0.30,weatherlink.com 1.10,2013-05-18 23:11:00,
2013-05-18 19:27:00,70.1,66.0,30.00,SSE,148,1.0,2.0,86,0.00,,,0.30,weatherlink.com 1.10,2013-05-18 23:27:00,
2013-05-18 19:44:00,70.0,66.0,30.00,SE,142,3.0,3.0,86,0.00,,,0.30,weatherlink.com 1.10,2013-05-18 23:44:00,
2013-05-18 20:00:00,69.8,66.0,30.00,SSE,154,0.0,4.0,86,0.00,,,0.30,weatherlink.com 1.10,2013-05-19 00:00:00,
2013-05-18 20:16:00,69.7,65.0,30.00,SSE,149,0.0,3.0,86,0.00,,,0.30,weatherlink.com 1.10,2013-05-19 00:16:00,
2013-05-18 20:34:00,69.7,66.0,30.01,SE,140,4.0,4.0,87,0.00,,,0.30,weatherlink.com 1.10,2013-05-19 00:34:00,
2013-05-18 20:50:00,69.6,66.0,30.01,SSE,149,1.0,5.0,87,0.00,,,0.30,weatherlink.com 1.10,2013-05-19 00:50:00,
2013-05-18 21:06:00,69.5,66.0,30.01,South,173,1.0,4.0,87,0.00,,,0.30,weatherlink.com 1.10,2013-05-19 01:06:00,
2013-05-18 21:23:00,69.5,66.0,30.01,SE,126,2.0,4.0,87,0.00,,,0.30,weatherlink.com 1.10,2013-05-19 01:23:00,
2013-05-18 21:39:00,69.3,66.0,30.01,South,188,0.0,4.0,88,0.00,,,0.30,weatherlink.com 1.10,2013-05-19 01:39:00,
2013-05-18 21:55:00,69.2,66.0,30.01,East,88,0.0,2.0,88,0.00,,,0.30,weatherlink.com 1.10,2013-05-19 01:55:00,
2013-05-18 22:00:00,69.2,65.8,30.01,East,88,1.0,5.0,89,0.00,,---,0.30,VWS V14.01,2013-05-19 02:00:00,
2013-05-18 22:12:00,69.1,66.0,30.01,ESE,119,0.0,2.0,89,0.00,,,0.30,weatherlink.com 1.10,2013-05-19 02:12:00,
2013-05-18 22:28:00,68.9,66.0,30.01,SSE,149,0.0,4.0,89,0.00,,,0.30,weatherlink.com 1.10,2013-05-19 02:28:00,
2013-05-18 22:44:00,68.8,66.0,30.01,SE,128,3.0,3.0,90,0.00,,,0.30,weatherlink.com 1.10,2013-05-19 02:44:00,
2013-05-18 23:01:00,68.6,66.0,30.02,SSE,162,2.0,4.0,90,0.00,,,0.30,weatherlink.com 1.10,2013-05-19 03:01:00,
2013-05-18 23:18:00,68.6,66.0,30.02,ESE,116,1.0,4.0,91,0.00,,,0.30,weatherlink.com 1.10,2013-05-19 03:18:00,
2013-05-18 23:33:00,68.6,66.0,30.02,SSE,150,2.0,2.0,91,0.00,,,0.30,weatherlink.com 1.10,2013-05-19 03:33:00,
2013-05-18 23:50:00,68.6,66.0,30.01,ESE,106,0.0,3.0,91,0.00,,,0.30,weatherlink.com 1.10,2013-05-19 03:50:00,